createdAt,value
2023-02-27T00:02:17.935Z,102899.81
2023-02-27T00:04:45.778Z,102897.81
2023-02-27T00:07:14.918Z,102901.53
2023-02-27T00:09:42.716Z,102899.97
2023-02-27T00:12:11.998Z,102917.91
2023-02-27T00:14:39.853Z,102910.63
2023-02-27T00:17:07.981Z,102907.72
2023-02-27T00:19:35.802Z,102911.09
2023-02-27T00:22:03.593Z,102907.28
2023-02-27T00:24:32.779Z,102902.34
2023-02-27T00:27:00.634Z,102908.06
2023-02-27T00:29:28.851Z,102904.59
2023-02-27T00:31:56.855Z,102898.31
2023-02-27T00:34:25.491Z,102899.56
2023-02-27T00:36:54.102Z,102892.59
2023-02-27T00:39:21.867Z,102892.94
2023-02-27T00:41:51.031Z,102892.84
2023-02-27T00:44:18.828Z,102896.09
2023-02-27T00:46:47.109Z,102897.81
2023-02-27T00:49:14.910Z,102890.19
2023-02-27T00:51:42.982Z,102889.50
2023-02-27T00:54:10.737Z,102888.53
2023-02-27T00:56:38.527Z,102884.81
2023-02-27T00:59:08.020Z,102882.50
2023-02-27T01:01:36.100Z,102880.66
2023-02-27T01:04:03.895Z,102883.59
2023-02-27T01:06:31.670Z,102876.00
2023-02-27T01:08:59.438Z,102888.09
2023-02-27T01:11:27.611Z,102881.03
2023-02-27T01:13:55.665Z,102885.19
2023-02-27T01:16:25.440Z,102884.97
2023-02-27T01:18:53.537Z,102890.47
2023-02-27T01:21:21.833Z,102894.28
2023-02-27T01:23:49.799Z,102882.94
2023-02-27T01:26:20.255Z,102895.50
2023-02-27T01:28:48.138Z,102891.13
2023-02-27T01:31:16.224Z,102890.72
2023-02-27T01:33:45.400Z,102886.22
2023-02-27T01:36:13.189Z,102888.69
2023-02-27T01:38:40.979Z,102884.44
2023-02-27T01:41:08.895Z,102881.28
2023-02-27T01:43:55.304Z,102879.25
2023-02-27T01:46:23.416Z,102879.94
2023-02-27T01:48:55.678Z,102881.41
2023-02-27T01:51:23.653Z,102885.19
2023-02-27T01:53:54.193Z,102886.22
2023-02-27T01:56:24.788Z,102881.63
2023-02-27T01:58:56.955Z,102879.16
2023-02-27T02:01:26.712Z,102876.56
2023-02-27T02:04:02.608Z,102876.91
2023-02-27T02:06:37.114Z,102877.72
2023-02-27T02:09:08.362Z,102877.72
2023-02-27T02:11:36.487Z,102876.34
2023-02-27T02:14:04.309Z,102874.88
2023-02-27T02:16:55.065Z,102877.13
2023-02-27T02:20:07.428Z,102877.78
2023-02-27T02:23:09.710Z,102881.13
2023-02-27T02:26:05.182Z,102882.03
2023-02-27T02:29:14.337Z,102883.94
2023-02-27T02:32:26.289Z,102875.66
2023-02-27T02:35:15.963Z,102879.00
2023-02-27T02:38:09.267Z,102881.88
2023-02-27T02:40:44.806Z,102878.53
2023-02-27T02:43:20.918Z,102878.09
2023-02-27T02:45:59.801Z,102888.13
2023-02-27T02:48:34.041Z,102889.78
2023-02-27T02:51:09.101Z,102887.53
2023-02-27T02:53:44.462Z,102887.09
2023-02-27T02:56:20.607Z,102888.00
2023-02-27T02:58:59.716Z,102890.56
2023-02-27T03:01:34.515Z,102888.75
2023-02-27T03:04:08.925Z,102880.44
2023-02-27T03:06:41.473Z,102890.84
2023-02-27T03:09:16.174Z,102883.91
2023-02-27T03:11:49.534Z,102888.69
2023-02-27T03:14:22.814Z,102882.88
2023-02-27T03:16:55.506Z,102884.66
2023-02-27T03:19:26.438Z,102877.41
2023-02-27T03:21:59.689Z,102888.44
2023-02-27T03:24:33.613Z,102891.13
2023-02-27T03:27:05.135Z,102890.69
2023-02-27T03:29:44.966Z,102886.09
2023-02-27T03:32:18.745Z,102883.28
2023-02-27T03:34:46.997Z,102875.56
2023-02-27T03:37:27.620Z,102872.31
2023-02-27T03:40:06.469Z,102870.25
2023-02-27T03:42:41.632Z,102869.03
2023-02-27T03:45:25.471Z,102872.63
2023-02-27T03:47:53.761Z,102872.31
2023-02-27T03:50:22.297Z,102870.72
2023-02-27T03:52:51.086Z,102870.72
2023-02-27T03:55:22.788Z,102872.63
2023-02-27T03:57:52.834Z,102869.84
2023-02-27T04:00:22.982Z,102869.50
2023-02-27T04:02:53.617Z,102876.53
2023-02-27T04:05:25.500Z,102880.00
2023-02-27T04:08:16.390Z,102882.69
2023-02-27T04:10:57.342Z,102889.28
2023-02-27T04:13:46.913Z,102896.56
2023-02-27T04:16:37.703Z,102894.88
2023-02-27T04:19:18.617Z,102909.50
2023-02-27T04:21:55.209Z,102903.69
2023-02-27T04:24:37.256Z,102905.13
2023-02-27T04:27:16.432Z,102909.25
2023-02-27T04:29:56.623Z,102914.16
2023-02-27T04:32:34.190Z,102910.88
2023-02-27T04:35:07.063Z,102912.34
2023-02-27T04:37:43.457Z,102918.34
2023-02-27T04:40:14.474Z,102920.56
2023-02-27T04:42:48.239Z,102925.78
2023-02-27T04:45:21.874Z,102923.44
2023-02-27T04:47:54.875Z,102930.38
2023-02-27T04:50:28.077Z,102921.56
2023-02-27T04:53:01.228Z,102923.00
2023-02-27T04:55:34.030Z,102928.97
2023-02-27T04:58:10.502Z,102930.09
2023-02-27T05:00:42.792Z,102930.75
2023-02-27T05:03:15.634Z,102918.00
2023-02-27T05:05:46.529Z,102924.00
2023-02-27T05:08:20.260Z,102921.63
2023-02-27T05:10:53.831Z,102928.91
2023-02-27T05:13:28.399Z,102923.06
2023-02-27T05:16:04.286Z,102928.78
2023-02-27T05:18:32.397Z,102941.72
2023-02-27T05:21:10.361Z,102933.66
2023-02-27T05:23:44.895Z,102945.47
2023-02-27T05:26:18.976Z,102941.72
2023-02-27T05:28:55.136Z,102940.13
2023-02-27T05:31:29.589Z,102942.94
2023-02-27T05:34:05.036Z,102942.19
2023-02-27T05:36:36.062Z,102949.09
2023-02-27T05:39:06.732Z,102947.53
2023-02-27T05:41:38.312Z,102950.66
2023-02-27T05:44:09.988Z,102950.22
2023-02-27T05:46:44.788Z,102945.81
2023-02-27T05:49:18.368Z,102944.91
2023-02-27T05:51:50.504Z,102955.91
2023-02-27T05:54:25.254Z,102955.13
2023-02-27T05:56:57.139Z,102957.34
2023-02-27T05:59:30.171Z,102954.22
2023-02-27T06:01:59.357Z,102960.34
2023-02-27T06:04:27.324Z,102952.31
2023-02-27T06:06:55.361Z,102951.22
2023-02-27T06:09:23.113Z,102961.16
2023-02-27T06:11:50.900Z,102963.69
2023-02-27T06:14:18.787Z,102969.03
2023-02-27T06:16:46.587Z,102977.38
2023-02-27T06:19:15.755Z,102980.88
2023-02-27T06:21:43.531Z,102992.69
2023-02-27T06:24:11.276Z,102994.88
2023-02-27T06:26:39.056Z,103000.59
2023-02-27T06:29:06.840Z,103001.22
2023-02-27T06:31:34.586Z,103003.25
2023-02-27T06:34:02.913Z,103013.63
2023-02-27T06:36:32.177Z,103005.59
2023-02-27T06:39:00.031Z,103020.59
2023-02-27T06:41:28.545Z,103014.88
2023-02-27T06:43:58.059Z,103019.63
2023-02-27T06:46:26.331Z,103007.47
2023-02-27T06:48:54.458Z,103011.72
2023-02-27T06:51:22.273Z,103019.44
2023-02-27T06:53:51.502Z,103018.00
2023-02-27T06:56:19.470Z,103030.31
2023-02-27T06:58:47.260Z,103029.34
2023-02-27T07:01:15.190Z,103023.47
2023-02-27T07:03:43.017Z,103022.19
2023-02-27T07:06:12.009Z,103025.00
2023-02-27T07:09:01.027Z,103020.94
2023-02-27T07:11:29.643Z,103025.75
2023-02-27T07:13:57.707Z,103033.00
2023-02-27T07:16:25.755Z,103022.06
2023-02-27T07:18:53.695Z,103033.84
2023-02-27T07:21:21.478Z,103026.88
2023-02-27T07:23:49.237Z,103022.25
2023-02-27T07:26:17.059Z,103029.72
2023-02-27T07:28:46.171Z,103026.31
2023-02-27T07:31:14.248Z,103025.28
2023-02-27T07:33:42.002Z,103026.44
2023-02-27T07:36:09.974Z,103026.03
2023-02-27T07:38:37.706Z,103023.28
2023-02-27T07:41:05.838Z,103026.91
2023-02-27T07:43:33.590Z,103019.44
2023-02-27T07:46:04.117Z,103030.47
2023-02-27T07:48:32.037Z,103030.38
2023-02-27T07:51:00.210Z,103027.41
2023-02-27T07:53:28.381Z,103025.88
2023-02-27T07:55:56.210Z,103032.16
2023-02-27T07:58:23.981Z,103039.09
2023-02-27T08:00:52.047Z,103043.06
2023-02-27T08:03:21.213Z,103038.28
2023-02-27T08:05:49.278Z,103035.50
2023-02-27T08:08:17.032Z,103039.31
2023-02-27T08:10:44.952Z,103047.31
2023-02-27T08:13:12.768Z,103046.88
2023-02-27T08:15:41.289Z,103053.84
2023-02-27T08:18:09.197Z,103051.69
2023-02-27T08:20:38.432Z,103052.44
2023-02-27T08:23:06.875Z,103060.25
2023-02-27T08:25:34.680Z,103060.91
2023-02-27T08:28:02.701Z,103058.25
2023-02-27T08:30:30.696Z,103065.50
2023-02-27T08:32:58.718Z,103063.00
2023-02-27T08:35:26.561Z,103071.25
2023-02-27T08:37:55.669Z,103067.03
2023-02-27T08:40:23.494Z,103072.56
2023-02-27T08:42:52.646Z,103075.34
2023-02-27T08:45:20.472Z,103078.94
2023-02-27T08:47:48.278Z,103081.75
2023-02-27T08:50:16.041Z,103086.03
2023-02-27T08:52:43.831Z,103082.97
2023-02-27T08:55:13.188Z,103087.28
2023-02-27T08:57:40.988Z,103083.75
2023-02-27T09:00:14.578Z,103082.56
2023-02-27T09:02:42.550Z,103082.94
2023-02-27T09:05:11.435Z,103086.00
2023-02-27T09:07:39.302Z,103085.16
2023-02-27T09:10:08.209Z,103092.53
2023-02-27T09:12:37.555Z,103091.66
2023-02-27T09:15:06.338Z,103088.38
2023-02-27T09:17:34.208Z,103092.66
2023-02-27T09:20:02.051Z,103097.59
2023-02-27T09:22:30.032Z,103099.31
2023-02-27T09:24:57.900Z,103096.69
2023-02-27T09:27:26.012Z,103094.66
2023-02-27T09:29:56.385Z,103096.78
2023-02-27T09:32:24.546Z,103096.59
2023-02-27T09:34:52.528Z,103100.47
2023-02-27T09:37:20.572Z,103099.34
2023-02-27T09:39:48.518Z,103093.25
2023-02-27T09:42:20.415Z,103099.09
2023-02-27T09:44:51.582Z,103098.13
2023-02-27T09:47:27.643Z,103094.72
2023-02-27T09:50:08.127Z,103099.50
2023-02-27T09:52:38.415Z,103095.84
2023-02-27T09:55:07.494Z,103100.88
2023-02-27T09:57:45.619Z,103105.19
2023-02-27T10:00:30.402Z,103090.78
2023-02-27T10:03:12.628Z,103098.31
2023-02-27T10:05:45.811Z,103103.59
2023-02-27T10:08:22.749Z,103105.03
2023-02-27T10:10:55.029Z,103101.47
2023-02-27T10:13:37.918Z,103096.41
2023-02-27T10:16:06.773Z,103088.78
2023-02-27T10:18:38.399Z,103084.06
2023-02-27T10:21:11.825Z,103087.22
2023-02-27T10:23:44.735Z,103086.84
2023-02-27T10:26:20.683Z,103088.91
2023-02-27T10:28:48.862Z,103089.09
2023-02-27T10:31:21.199Z,103089.41
2023-02-27T10:33:51.897Z,103083.63
2023-02-27T10:36:33.051Z,103084.66
2023-02-27T10:39:07.070Z,103090.91
2023-02-27T10:41:36.885Z,103090.53
2023-02-27T10:44:05.528Z,103085.66
2023-02-27T10:46:38.091Z,103080.84
2023-02-27T10:49:18.321Z,103091.06
2023-02-27T10:51:47.395Z,103088.16
2023-02-27T10:54:19.924Z,103084.16
2023-02-27T10:56:52.136Z,103085.59
2023-02-27T10:59:23.600Z,103073.59
2023-02-27T11:01:54.353Z,103069.78
2023-02-27T11:04:30.972Z,103072.75
2023-02-27T11:07:00.391Z,103066.59
2023-02-27T11:09:30.402Z,103065.03
2023-02-27T11:12:12.154Z,103064.66
2023-02-27T11:14:50.184Z,103054.59
2023-02-27T11:17:27.458Z,103058.50
2023-02-27T11:19:57.378Z,103059.78
2023-02-27T11:22:27.407Z,103048.22
2023-02-27T11:25:18.237Z,103040.94
2023-02-27T11:27:47.000Z,103039.94
2023-02-27T11:30:24.865Z,103040.66
2023-02-27T11:32:54.398Z,103039.44
2023-02-27T11:35:29.446Z,103038.34
2023-02-27T11:38:01.261Z,103025.38
2023-02-27T11:40:31.979Z,103018.56
2023-02-27T11:43:04.936Z,103024.78
2023-02-27T11:46:14.672Z,103020.47
2023-02-27T11:48:26.595Z,103019.88
2023-02-27T11:51:17.793Z,103022.50
2023-02-27T11:54:29.985Z,103011.47
2023-02-27T11:57:01.372Z,103010.53
2023-02-27T11:59:40.130Z,103012.41
2023-02-27T12:02:19.077Z,103005.75
2023-02-27T12:04:53.653Z,103019.00
2023-02-27T12:07:27.390Z,103006.38
2023-02-27T12:10:02.490Z,103005.69
2023-02-27T12:12:36.674Z,102996.03
2023-02-27T12:15:16.400Z,102997.47
2023-02-27T12:17:48.606Z,103000.38
2023-02-27T12:20:31.021Z,103010.53
2023-02-27T12:23:03.370Z,103006.25
2023-02-27T12:25:37.423Z,103007.47
2023-02-27T12:28:16.997Z,102994.09
2023-02-27T12:30:50.981Z,102997.75
2023-02-27T12:33:26.633Z,102994.19
2023-02-27T12:36:00.392Z,102986.97
2023-02-27T12:38:30.092Z,102977.09
2023-02-27T12:41:09.733Z,102984.97
2023-02-27T12:43:43.360Z,102990.28
2023-02-27T12:46:26.043Z,102973.44
2023-02-27T12:49:10.481Z,102992.47
2023-02-27T12:51:52.112Z,102981.38
2023-02-27T12:54:46.345Z,102982.91
2023-02-27T12:57:33.167Z,102992.22
2023-02-27T13:00:11.672Z,102979.13
2023-02-27T13:02:49.522Z,102982.84
2023-02-27T13:05:32.271Z,102980.88
2023-02-27T13:08:06.146Z,102990.28
2023-02-27T13:10:40.364Z,102983.16
2023-02-27T13:13:17.662Z,102981.66
2023-02-27T13:15:52.414Z,102973.91
2023-02-27T13:18:32.392Z,102978.28
2023-02-27T13:21:08.505Z,102970.06
2023-02-27T13:23:47.712Z,102968.84
2023-02-27T13:26:22.338Z,102962.47
2023-02-27T13:28:51.343Z,102968.72
2023-02-27T13:31:31.790Z,102975.34
2023-02-27T13:34:09.269Z,102968.31
2023-02-27T13:36:41.516Z,102972.59
2023-02-27T13:39:43.739Z,102972.81
2023-02-27T13:42:49.099Z,102973.88
2023-02-27T13:45:50.248Z,102966.91
2023-02-27T13:48:46.225Z,102970.41
2023-02-27T13:51:44.751Z,102965.91
2023-02-27T13:54:33.120Z,102959.16
2023-02-27T13:57:16.516Z,102950.16
2023-02-27T13:59:56.263Z,102960.13
2023-02-27T14:02:34.591Z,102943.19
2023-02-27T14:05:06.192Z,102951.75
2023-02-27T14:07:48.146Z,102961.44
2023-02-27T14:10:22.048Z,102954.03
2023-02-27T14:12:49.929Z,102965.91
2023-02-27T14:15:50.139Z,102961.53
2023-02-27T14:18:58.332Z,102952.13
2023-02-27T14:22:05.817Z,102951.28
2023-02-27T14:24:41.404Z,102957.00
2023-02-27T14:27:20.162Z,102961.03
2023-02-27T14:29:51.555Z,102949.25
2023-02-27T14:32:23.550Z,102955.00
2023-02-27T14:34:55.330Z,102955.38
2023-02-27T14:37:26.118Z,102947.66
2023-02-27T14:39:56.931Z,102952.28
2023-02-27T14:42:33.999Z,102941.09
2023-02-27T14:45:02.561Z,102949.16
2023-02-27T14:47:32.893Z,102952.34
2023-02-27T14:50:03.993Z,102962.00
2023-02-27T14:52:33.880Z,102958.88
2023-02-27T14:55:16.818Z,102961.53
2023-02-27T14:57:56.018Z,102958.41
2023-02-27T15:00:35.584Z,102954.16
2023-02-27T15:03:13.119Z,102954.81
2023-02-27T15:05:42.490Z,102951.75
2023-02-27T15:08:17.643Z,102950.56
2023-02-27T15:10:45.834Z,102952.41
2023-02-27T15:13:25.135Z,102951.66
2023-02-27T15:15:56.929Z,102956.44
2023-02-27T15:18:26.363Z,102957.03
2023-02-27T15:21:01.354Z,102953.59
2023-02-27T15:23:29.855Z,102955.47
2023-02-27T15:25:59.186Z,102955.25
2023-02-27T15:28:31.544Z,102959.59
2023-02-27T15:30:59.527Z,102958.22
2023-02-27T15:33:31.062Z,102957.19
2023-02-27T15:35:59.672Z,102964.00
2023-02-27T15:38:34.911Z,102960.19
2023-02-27T15:41:04.884Z,102962.66
2023-02-27T15:43:32.958Z,102961.94
2023-02-27T15:46:01.114Z,102966.72
2023-02-27T15:48:29.867Z,102965.53
2023-02-27T15:51:01.027Z,102967.28
2023-02-27T15:53:33.967Z,102963.03
2023-02-27T15:56:06.091Z,102965.81
2023-02-27T15:58:36.557Z,102976.72
2023-02-27T16:01:08.666Z,102966.09
2023-02-27T16:03:39.148Z,102969.97
2023-02-27T16:06:13.045Z,102975.53
2023-02-27T16:08:47.468Z,102962.34
2023-02-27T16:11:22.278Z,102958.41
2023-02-27T16:13:50.378Z,102961.03
2023-02-27T16:16:31.765Z,102953.91
2023-02-27T16:19:02.647Z,102962.38
2023-02-27T16:21:32.123Z,102966.69
2023-02-27T16:24:22.460Z,102965.97
2023-02-27T16:26:53.046Z,102961.72
2023-02-27T16:29:23.661Z,102973.50
2023-02-27T16:31:54.110Z,102964.56
2023-02-27T16:34:42.900Z,102968.16
2023-02-27T16:37:20.322Z,102968.47
2023-02-27T16:39:51.137Z,102977.66
2023-02-27T16:42:19.491Z,102976.59
2023-02-27T16:44:47.362Z,102973.97
2023-02-27T16:47:15.251Z,102975.41
2023-02-27T16:49:44.424Z,102970.63
2023-02-27T16:52:12.965Z,102972.19
2023-02-27T16:54:40.734Z,102971.59
2023-02-27T16:57:10.511Z,102970.25
2023-02-27T16:59:40.492Z,102965.75
2023-02-27T17:02:13.730Z,102968.56
2023-02-27T17:04:44.094Z,102981.84
2023-02-27T17:07:15.785Z,102974.06
2023-02-27T17:09:44.777Z,102979.50
2023-02-27T17:12:14.238Z,102974.44
2023-02-27T17:14:41.985Z,102988.44
2023-02-27T17:17:11.367Z,102980.25
2023-02-27T17:19:39.439Z,102987.63
2023-02-27T17:22:07.579Z,102982.94
2023-02-27T17:24:35.334Z,102990.69
2023-02-27T17:27:03.241Z,103001.13
2023-02-27T17:29:32.393Z,102993.75
2023-02-27T17:32:00.293Z,103001.53
2023-02-27T17:34:28.183Z,102998.38
2023-02-27T17:36:55.938Z,102999.56
2023-02-27T17:39:23.727Z,103000.69
2023-02-27T17:41:52.920Z,103010.03
2023-02-27T17:44:20.853Z,103008.44
2023-02-27T17:46:50.036Z,103008.38
2023-02-27T17:49:17.832Z,103004.50
2023-02-27T17:51:45.700Z,103012.28
2023-02-27T17:54:13.457Z,103012.28
2023-02-27T17:56:41.216Z,103011.50
2023-02-27T17:59:09.035Z,103017.31
2023-02-27T18:01:36.910Z,103012.28
2023-02-27T18:04:07.922Z,103009.13
2023-02-27T18:06:35.776Z,103026.56
2023-02-27T18:09:03.606Z,103019.19
2023-02-27T18:11:31.381Z,103023.81
2023-02-27T18:13:59.207Z,103016.84
2023-02-27T18:16:27.324Z,103020.69
2023-02-27T18:18:55.459Z,103015.66
2023-02-27T18:21:24.735Z,103017.19
2023-02-27T18:23:53.084Z,103020.28
2023-02-27T18:26:30.027Z,103029.59
2023-02-27T18:29:00.379Z,103034.66
2023-02-27T18:31:30.118Z,103030.28
2023-02-27T18:33:58.154Z,103030.59
2023-02-27T18:36:28.051Z,103031.75
2023-02-27T18:38:56.087Z,103031.69
2023-02-27T18:41:23.919Z,103033.22
2023-02-27T18:43:52.120Z,103028.16
2023-02-27T18:46:20.532Z,103035.88
2023-02-27T18:48:48.537Z,103038.88
2023-02-27T18:51:17.594Z,103041.09
2023-02-27T18:53:49.114Z,103050.31
2023-02-27T18:56:18.668Z,103051.78
2023-02-27T18:58:46.781Z,103054.09
2023-02-27T19:01:20.152Z,103051.38
2023-02-27T19:03:48.053Z,103047.81
2023-02-27T19:06:16.053Z,103056.63
2023-02-27T19:08:43.925Z,103053.91
2023-02-27T19:11:22.144Z,103055.03
2023-02-27T19:13:50.054Z,103050.28
2023-02-27T19:16:18.069Z,103056.00
2023-02-27T19:18:45.930Z,103045.84
2023-02-27T19:21:13.712Z,103055.50
2023-02-27T19:23:41.501Z,103051.56
2023-02-27T19:26:09.341Z,103055.66
2023-02-27T19:28:38.522Z,103058.28
2023-02-27T19:31:10.723Z,103051.75
2023-02-27T19:33:39.291Z,103060.66
2023-02-27T19:36:08.057Z,103064.88
2023-02-27T19:38:36.230Z,103059.00
2023-02-27T19:41:04.735Z,103060.88
2023-02-27T19:43:32.729Z,103064.34
2023-02-27T19:46:05.975Z,103063.50
2023-02-27T19:48:34.041Z,103070.72
2023-02-27T19:51:03.299Z,103072.72
2023-02-27T19:53:31.742Z,103064.09
2023-02-27T19:56:01.479Z,103079.16
2023-02-27T19:58:29.530Z,103075.75
2023-02-27T20:00:57.554Z,103077.97
2023-02-27T20:03:27.333Z,103079.03
2023-02-27T20:05:55.103Z,103085.03
2023-02-27T20:08:23.163Z,103081.88
2023-02-27T20:10:55.765Z,103085.31
2023-02-27T20:13:23.914Z,103083.72
2023-02-27T20:15:58.982Z,103079.88
2023-02-27T20:18:29.810Z,103085.66
2023-02-27T20:21:03.125Z,103087.50
2023-02-27T20:23:31.853Z,103080.06
2023-02-27T20:26:00.330Z,103075.38
2023-02-27T20:28:29.047Z,103077.50
2023-02-27T20:30:56.829Z,103087.47
2023-02-27T20:33:24.607Z,103083.59
2023-02-27T20:35:53.784Z,103085.13
2023-02-27T20:38:22.673Z,103080.44
2023-02-27T20:40:51.046Z,103078.16
2023-02-27T20:43:18.929Z,103074.25
2023-02-27T20:45:46.822Z,103075.38
2023-02-27T20:48:14.628Z,103071.53
2023-02-27T20:50:42.684Z,103077.66
2023-02-27T20:53:14.734Z,103074.03
2023-02-27T20:55:48.774Z,103077.81
2023-02-27T20:58:17.155Z,103069.94
2023-02-27T21:00:45.035Z,103076.06
2023-02-27T21:03:12.884Z,103084.81
2023-02-27T21:05:47.270Z,103082.41
2023-02-27T21:08:16.674Z,103082.75
2023-02-27T21:10:44.825Z,103080.28
2023-02-27T21:13:12.649Z,103081.72
2023-02-27T21:15:40.466Z,103076.16
2023-02-27T21:18:09.111Z,103071.06
2023-02-27T21:20:36.994Z,103082.50
2023-02-27T21:23:04.798Z,103078.78
2023-02-27T21:25:34.116Z,103081.28
2023-02-27T21:28:02.279Z,103085.44
2023-02-27T21:30:30.236Z,103078.38
2023-02-27T21:32:58.557Z,103085.44
2023-02-27T21:35:26.395Z,103083.88
2023-02-27T21:37:54.855Z,103085.03
2023-02-27T21:40:22.897Z,103083.88
2023-02-27T21:42:52.943Z,103088.06
2023-02-27T21:45:20.771Z,103093.03
2023-02-27T21:47:48.635Z,103089.19
2023-02-27T21:50:18.171Z,103096.53
2023-02-27T21:52:46.045Z,103095.94
2023-02-27T21:55:13.979Z,103103.19
2023-02-27T21:57:41.788Z,103093.50
2023-02-27T22:00:12.840Z,103090.81
2023-02-27T22:02:40.999Z,103096.91
2023-02-27T22:05:09.564Z,103106.34
2023-02-27T22:07:38.336Z,103102.00
2023-02-27T22:10:06.785Z,103103.19
2023-02-27T22:12:34.554Z,103101.63
2023-02-27T22:15:02.411Z,103095.44
2023-02-27T22:17:31.590Z,103090.75
2023-02-27T22:19:59.422Z,103091.38
2023-02-27T22:22:27.311Z,103088.50
2023-02-27T22:24:55.173Z,103086.91
2023-02-27T22:27:22.949Z,103091.91
2023-02-27T22:29:50.775Z,103092.16
2023-02-27T22:32:18.555Z,103094.50
2023-02-27T22:34:47.761Z,103093.47
2023-02-27T22:37:16.183Z,103091.63
2023-02-27T22:39:44.277Z,103093.91
2023-02-27T22:42:12.071Z,103099.19
2023-02-27T22:44:39.879Z,103098.09
2023-02-27T22:47:07.628Z,103101.91
2023-02-27T22:49:37.027Z,103100.59
2023-02-27T22:52:06.497Z,103107.50
2023-02-27T22:54:34.279Z,103107.72
2023-02-27T22:57:02.117Z,103111.66
2023-02-27T22:59:29.855Z,103107.03
2023-02-27T23:01:57.720Z,103103.66
2023-02-27T23:04:25.562Z,103100.16
2023-02-27T23:06:55.957Z,103105.63
2023-02-27T23:09:27.180Z,103101.03
2023-02-27T23:11:55.186Z,103113.31
2023-02-27T23:14:23.537Z,103111.56
2023-02-27T23:16:51.408Z,103104.78
2023-02-27T23:19:21.278Z,103105.47
2023-02-27T23:21:49.359Z,103111.34
2023-02-27T23:24:19.126Z,103114.16
2023-02-27T23:26:49.843Z,103114.59
2023-02-27T23:29:18.465Z,103114.50
2023-02-27T23:31:46.361Z,103114.66
2023-02-27T23:34:14.305Z,103111.44
2023-02-27T23:36:42.089Z,103109.00
2023-02-27T23:39:10.641Z,103110.47
2023-02-27T23:41:38.534Z,103119.78
2023-02-27T23:44:25.130Z,103119.34
2023-02-27T23:46:52.887Z,103117.66
2023-02-27T23:49:20.882Z,103123.19
2023-02-27T23:51:48.686Z,103116.91
2023-02-27T23:54:16.502Z,103116.06
2023-02-27T23:56:44.339Z,103104.34
2023-02-27T23:59:13.469Z,103109.72
